createdAt,value
2023-02-09T00:05:53.148Z,69.40
2023-02-09T00:16:02.360Z,74.30
2023-02-09T00:26:12.741Z,66.00
2023-02-09T00:46:26.867Z,54.10
2023-02-09T00:56:34.327Z,51.90
2023-02-09T01:06:41.938Z,50.90
2023-02-09T01:16:49.489Z,51.00
2023-02-09T01:26:56.712Z,54.90
2023-02-09T01:37:03.773Z,55.00
2023-02-09T01:47:14.548Z,58.70
2023-02-09T01:57:26.651Z,59.70
2023-02-09T02:07:40.084Z,58.60
2023-02-09T02:17:50.799Z,54.00
2023-02-09T02:27:59.982Z,61.20
2023-02-09T02:38:05.862Z,58.80
2023-02-09T02:48:17.365Z,64.50
2023-02-09T02:58:27.002Z,59.00
2023-02-09T03:08:48.258Z,60.90
2023-02-09T03:19:06.461Z,52.80
2023-02-09T03:29:15.203Z,44.80
2023-02-09T03:49:26.193Z,61.50
2023-02-09T03:59:33.790Z,57.40
2023-02-09T04:09:40.768Z,50.70
2023-02-09T04:19:48.437Z,56.70
2023-02-09T04:29:55.468Z,56.40
2023-02-09T04:40:02.690Z,57.30
2023-02-09T04:50:10.633Z,50.30
2023-02-09T05:00:18.301Z,57.10
2023-02-09T05:10:25.457Z,56.70
2023-02-09T05:20:32.426Z,72.70
2023-02-09T05:30:39.668Z,59.30
2023-02-09T05:40:47.354Z,54.70
2023-02-09T05:50:55.332Z,44.00
2023-02-09T06:01:02.893Z,56.00
2023-02-09T06:11:10.918Z,58.30
2023-02-09T06:21:19.026Z,54.80
2023-02-09T06:31:26.482Z,41.90
2023-02-09T06:41:33.941Z,47.20
2023-02-09T06:51:41.501Z,44.70
2023-02-09T07:01:52.184Z,47.20
2023-02-09T07:12:00.648Z,48.60
2023-02-09T07:22:08.037Z,44.40
2023-02-09T07:32:15.822Z,39.20
2023-02-09T07:42:23.459Z,36.00
2023-02-09T07:52:30.862Z,32.00
2023-02-09T08:02:40.186Z,36.30
2023-02-09T08:13:05.186Z,28.20
2023-02-09T08:23:17.701Z,25.60
2023-02-09T08:33:25.832Z,22.50
2023-02-09T08:43:34.085Z,21.80
2023-02-09T08:53:41.606Z,23.00
2023-02-09T09:03:49.917Z,21.70
2023-02-09T09:13:57.501Z,22.10
2023-02-09T09:24:05.236Z,19.50
2023-02-09T09:34:12.935Z,18.50
2023-02-09T09:44:23.740Z,19.60
2023-02-09T09:54:34.536Z,15.80
2023-02-09T10:04:41.853Z,16.40
2023-02-09T10:14:49.891Z,15.90
2023-02-09T10:24:57.812Z,17.60
2023-02-09T10:35:08.322Z,19.20
2023-02-09T10:45:21.564Z,18.30
2023-02-09T10:55:27.949Z,19.40
2023-02-09T11:05:34.067Z,18.00
2023-02-09T11:15:49.145Z,16.60
2023-02-09T11:25:54.808Z,18.40
2023-02-09T11:36:01.715Z,17.40
2023-02-09T11:46:13.835Z,16.20
2023-02-09T11:56:24.945Z,16.10
2023-02-09T12:06:36.045Z,14.10
2023-02-09T12:16:44.141Z,15.20
2023-02-09T12:26:58.288Z,15.10
2023-02-09T12:37:28.616Z,13.90
2023-02-09T12:47:47.383Z,12.80
2023-02-09T12:57:55.204Z,12.20
2023-02-09T13:08:04.998Z,13.20
2023-02-09T13:28:22.967Z,13.30
2023-02-09T13:38:34.574Z,14.00
2023-02-09T13:48:42.221Z,11.00
2023-02-09T13:58:50.740Z,13.20
2023-02-09T14:08:59.190Z,11.60
2023-02-09T14:29:34.055Z,13.00
2023-02-09T14:49:57.704Z,12.90
2023-02-09T15:00:14.614Z,13.60
2023-02-09T15:10:20.812Z,16.00
2023-02-09T15:20:30.838Z,13.20
2023-02-09T15:30:37.691Z,13.90
2023-02-09T15:41:04.328Z,17.30
2023-02-09T15:51:12.482Z,19.50
2023-02-09T16:01:20.741Z,23.60
2023-02-09T16:11:33.604Z,22.70
2023-02-09T16:21:40.519Z,25.60
2023-02-09T16:31:47.724Z,30.50
2023-02-09T16:41:55.477Z,26.60
2023-02-09T16:52:02.523Z,22.80
2023-02-09T17:02:32.614Z,23.90
2023-02-09T17:12:40.554Z,22.20
2023-02-09T17:22:48.126Z,21.70
2023-02-09T17:32:53.741Z,23.60
2023-02-09T17:43:00.110Z,26.90
2023-02-09T17:53:14.026Z,20.20
2023-02-09T18:03:23.493Z,22.20
2023-02-09T18:23:36.265Z,19.10
2023-02-09T18:33:44.928Z,18.10
2023-02-09T18:43:54.275Z,20.70
2023-02-09T19:04:06.834Z,17.00
2023-02-09T19:14:31.662Z,16.50
2023-02-09T19:24:39.154Z,17.80
2023-02-09T19:34:46.259Z,18.30
2023-02-09T19:44:55.465Z,15.30
2023-02-09T19:55:02.645Z,12.80
2023-02-09T20:05:10.819Z,14.40
2023-02-09T20:15:18.887Z,15.50
2023-02-09T20:25:26.058Z,16.40
2023-02-09T20:35:32.212Z,15.80
2023-02-09T20:45:52.884Z,15.30
2023-02-09T20:55:58.647Z,17.90
2023-02-09T21:16:15.645Z,17.30
2023-02-09T21:26:23.064Z,18.70
2023-02-09T21:36:29.200Z,26.80
2023-02-09T21:46:37.896Z,19.00
2023-02-09T21:56:46.413Z,15.60
2023-02-09T22:06:53.775Z,17.60
2023-02-09T22:17:01.062Z,17.90
2023-02-09T22:27:11.555Z,14.40
2023-02-09T22:37:18.959Z,17.20
2023-02-09T22:47:26.366Z,17.90
2023-02-09T22:57:33.515Z,17.10
2023-02-09T23:07:41.722Z,17.70
2023-02-09T23:17:48.942Z,18.70
2023-02-09T23:27:56.338Z,19.40
2023-02-09T23:38:03.426Z,20.50
2023-02-09T23:48:11.023Z,18.10
2023-02-09T23:58:18.321Z,19.50
